Time;durP1;ratioP1;P1;durP2;ratioP2;P2;SDS_P1;SDS_P2;PMS_P1;PMS_P2;Temp;Humidity;BMP_temperature;BMP_pressure;BME280_temperature;BME280_humidity;BME280_pressure;Samples;Min_cycle;Max_cycle;Signal;HPM_P1;HPM_P2
2022/01/25 00:08:24;;;;;;;0.20;0.20;;;-0.60;99.90;;;-1.09;100.00;101814.78;4928838;29;20211;-80
2022/01/25 00:31:10;;;;;;;0.32;0.32;;;-1.00;99.90;;;-1.71;100.00;101787.38;4911344;29;20210;-80
2022/01/25 00:33:44;;;;;;;0.30;0.30;;;-1.10;99.90;;;-1.71;100.00;101802.03;4899735;29;20217;-80
2022/01/25 00:36:17;;;;;;;0.30;0.30;;;-1.10;99.90;;;-1.51;100.00;101829.56;4894321;29;20226;-80
2022/01/25 00:38:47;;;;;;;0.20;0.20;;;-1.10;99.90;;;-1.57;100.00;101819.59;4931756;28;20210;-80
2022/01/25 00:41:16;;;;;;;0.30;0.30;;;-1.20;99.90;;;-1.73;100.00;101806.19;4944708;28;20210;-80
2022/01/25 00:43:46;;;;;;;0.30;0.30;;;-1.20;99.90;;;-1.68;100.00;101823.94;4928791;29;20210;-80
2022/01/25 00:46:16;;;;;;;0.30;0.30;;;-1.20;99.90;;;-1.64;100.00;101832.88;4895141;29;20844;-80
2022/01/25 00:48:49;;;;;;;0.30;0.30;;;-1.20;99.90;;;-1.64;100.00;101832.88;4945322;29;20214;-80
2022/01/25 00:54:13;;;;;;;0.45;0.45;;;-1.30;99.90;;;-1.67;100.00;101845.59;4932560;29;20671;-80
2022/01/25 00:56:47;;;;;;;0.20;0.20;;;-1.30;99.90;;;-1.73;100.00;101842.50;4916017;29;20241;-80
2022/01/25 00:59:29;;;;;;;0.20;0.20;;;-1.30;99.90;;;-1.82;100.00;101831.38;4897081;29;20203;-80
2022/01/25 01:02:06;;;;;;;0.30;0.30;;;-1.40;99.90;;;-1.95;100.00;101820.03;4915512;29;20230;-80
2022/01/25 01:04:36;;;;;;;0.20;0.20;;;-1.40;99.90;;;-1.81;100.00;101836.69;4943080;29;20218;-80
2022/01/25 01:07:08;;;;;;;0.30;0.30;;;-1.40;99.90;;;-1.90;100.00;101833.38;4896715;29;20234;-80
2022/01/25 01:09:38;;;;;;;0.20;0.20;;;-1.40;99.90;;;-1.92;100.00;101828.84;4907017;29;20211;-81
2022/01/25 01:12:16;;;;;;;1.02;1.02;;;-1.50;99.90;;;-1.80;100.00;101855.75;4906458;29;20202;-80
2022/01/25 01:15:54;;;;;;;0.20;0.20;;;-1.50;99.90;;;-1.74;100.00;101890.88;4928153;28;20213;-80
2022/01/25 01:37:34;;;;;;;0.30;0.30;;;-1.60;99.90;;;-1.89;100.00;101906.88;4916068;29;20222;-80
2022/01/25 01:44:50;;;;;;;0.30;0.30;;;-1.60;99.90;;;-1.96;100.00;101915.84;4912941;29;20256;-80
2022/01/25 01:47:32;;;;;;;0.30;0.30;;;-1.60;99.90;;;-1.93;100.00;101918.69;4890837;29;20238;-80
2022/01/25 01:50:02;;;;;;;0.20;0.20;;;-1.60;99.90;;;-1.93;100.00;101931.63;4923731;29;20210;-80
2022/01/25 01:52:30;;;;;;;0.30;0.30;;;-1.60;99.90;;;-1.91;100.00;101930.06;4925541;29;20202;-80
2022/01/25 01:54:58;;;;;;;0.30;0.30;;;-1.60;99.90;;;-1.97;100.00;101929.56;4916246;29;20211;-80
2022/01/25 01:57:26;;;;;;;0.22;0.22;;;-1.60;99.90;;;-2.13;100.00;101911.84;4907714;29;20271;-83
2022/01/25 01:59:54;;;;;;;0.20;0.20;;;-1.70;99.90;;;-2.15;100.00;101915.09;4930900;29;20218;-82
2022/01/25 02:02:22;;;;;;;0.20;0.20;;;-1.70;99.90;;;-2.33;100.00;101893.72;4912560;29;20233;-82
2022/01/25 02:04:50;;;;;;;0.20;0.20;;;-1.80;99.90;;;-2.41;100.00;101884.41;4956593;29;20206;-82
2022/01/25 02:07:18;;;;;;;0.20;0.20;;;-1.90;99.90;;;-2.51;100.00;101872.38;4914257;29;20249;-82
2022/01/25 02:09:47;;;;;;;0.30;0.30;;;-1.90;99.90;;;-2.56;100.00;101876.28;4910200;29;20214;-82
2022/01/25 02:12:15;;;;;;;0.20;0.20;;;-2.00;99.90;;;-2.59;100.00;101876.00;4922284;29;20225;-82
2022/01/25 02:14:43;;;;;;;1.60;1.50;;;-2.00;99.90;;;-2.49;100.00;101893.22;4936513;29;20203;-82
2022/01/25 02:17:27;;;;;;;0.30;0.30;;;-2.00;99.90;;;-2.57;100.00;101887.41;4929694;29;20246;-82
2022/01/25 02:23:21;;;;;;;0.30;0.30;;;-2.10;99.90;;;-2.60;100.00;101900.09;4920621;29;20223;-83
2022/01/25 02:25:57;;;;;;;0.20;0.20;;;-2.10;99.90;;;-2.52;100.00;101912.00;4925087;28;20232;-82
2022/01/25 02:28:31;;;;;;;0.20;0.20;;;-2.10;99.90;;;-2.53;100.00;101907.59;4902931;29;20217;-82
2022/01/25 02:31:00;;;;;;;0.20;0.20;;;-2.10;99.90;;;-2.58;100.00;101901.13;4917854;29;20217;-82
2022/01/25 02:33:29;;;;;;;0.20;0.20;;;-2.10;99.90;;;-2.58;100.00;101898.53;4899725;29;20210;-82
2022/01/25 02:36:01;;;;;;;0.20;0.20;;;-2.10;99.90;;;-2.53;100.00;101909.28;4906213;29;20239;-82
2022/01/25 02:38:32;;;;;;;0.20;0.20;;;-2.10;99.90;;;-2.62;100.00;101902.53;4934176;29;20229;-82
2022/01/25 02:41:02;;;;;;;0.25;0.25;;;-2.20;99.90;;;-2.63;100.00;101902.41;4914778;29;20679;-82
2022/01/25 02:43:59;;;;;;;0.30;0.30;;;-2.20;99.90;;;-2.53;100.00;101923.16;4945288;28;20690;-82
2022/01/25 02:49:04;;;;;;;0.20;0.20;;;-2.20;99.90;;;-2.67;100.00;101900.31;4928527;29;20221;-82
2022/01/25 02:51:39;;;;;;;0.30;0.30;;;-2.20;99.90;;;-2.68;100.00;101906.28;4931064;29;20210;-82
2022/01/25 02:54:09;;;;;;;1.10;0.80;;;-2.20;99.90;;;-2.76;100.00;101899.53;4939174;29;20206;-82
2022/01/25 02:56:40;;;;;;;0.30;0.30;;;-2.30;99.90;;;-2.63;100.00;101913.66;4928221;29;20233;-82
2022/01/25 02:59:08;;;;;;;0.30;0.30;;;-2.30;99.90;;;-2.50;100.00;101936.34;4913451;29;20214;-82
2022/01/25 03:01:38;;;;;;;0.25;0.25;;;-2.10;99.90;;;-2.71;100.00;101916.38;4906078;29;20213;-82
2022/01/25 03:04:08;;;;;;;0.30;0.30;;;-2.20;99.90;;;-2.79;100.00;101904.47;4908099;29;20219;-82
2022/01/25 03:06:36;;;;;;;0.30;0.30;;;-2.30;99.90;;;-2.81;100.00;101906.91;4918164;29;20230;-82
2022/01/25 03:09:05;;;;;;;0.30;0.30;;;-2.30;99.90;;;-2.80;100.00;101911.31;4917408;29;20207;-82
2022/01/25 03:11:34;;;;;;;0.28;0.28;;;-2.40;99.90;;;-2.84;100.00;101908.34;4928382;28;20209;-82
2022/01/25 03:14:07;;;;;;;0.20;0.20;;;-2.40;99.90;;;-2.84;100.00;101919.59;4917070;29;20206;-82
2022/01/25 03:16:44;;;;;;;0.20;0.20;;;-2.40;99.90;;;-2.96;100.00;101901.34;4928739;28;20742;-82
2022/01/25 03:22:16;;;;;;;0.60;0.60;;;-2.50;99.90;;;-2.84;100.00;101926.47;4946440;29;20213;-82
2022/01/25 03:24:46;;;;;;;0.30;0.30;;;-2.50;99.90;;;-2.79;100.00;101935.53;4933281;29;20226;-82
2022/01/25 03:27:14;;;;;;;0.30;0.30;;;-2.50;99.90;;;-2.82;100.00;101937.84;4902382;29;20230;-82
2022/01/25 03:29:42;;;;;;;0.30;0.30;;;-2.50;99.90;;;-2.76;100.00;101953.91;4918584;29;20199;-82
2022/01/25 03:32:10;;;;;;;0.30;0.30;;;-2.50;99.90;;;-2.78;100.00;101958.97;4929706;29;20202;-82
2022/01/25 03:34:38;;;;;;;0.30;0.30;;;-2.50;99.90;;;-2.86;100.00;101965.16;4916502;29;20206;-82
2022/01/25 03:37:06;;;;;;;0.30;0.30;;;-2.50;99.90;;;-2.82;100.00;101966.31;4919508;29;20233;-82
2022/01/25 03:39:34;;;;;;;0.30;0.30;;;-2.50;99.90;;;-2.83;100.00;101964.50;4899646;29;20230;-82
2022/01/25 03:42:07;;;;;;;0.28;0.28;;;-2.50;99.90;;;-2.88;100.00;101964.13;4904072;29;20207;-82
2022/01/25 03:44:36;;;;;;;0.20;0.20;;;-2.50;99.90;;;-2.97;100.00;101953.88;4901485;29;20225;-82
2022/01/25 03:47:08;;;;;;;0.30;0.30;;;-2.50;99.90;;;-2.97;100.00;101961.63;4900810;29;20230;-82
2022/01/25 03:49:52;;;;;;;0.30;0.30;;;-2.60;99.90;;;-3.01;100.00;101953.47;4917841;29;20218;-82
2022/01/25 03:52:33;;;;;;;0.30;0.30;;;-2.60;99.90;;;-3.03;100.00;101952.44;4931735;29;20216;-82
2022/01/25 03:55:02;;;;;;;0.25;0.25;;;-2.60;99.90;;;-2.99;100.00;101962.28;4949737;28;20225;-82
2022/01/25 03:57:31;;;;;;;0.30;0.30;;;-2.60;99.90;;;-3.05;100.00;101953.97;4919537;29;20234;-82
2022/01/25 04:00:00;;;;;;;0.30;0.30;;;-2.60;99.90;;;-3.24;100.00;101931.69;4923409;29;20210;-82
2022/01/25 04:02:47;;;;;;;0.30;0.30;;;-2.70;99.90;;;-3.35;100.00;101927.25;4937395;28;20214;-82
2022/01/25 04:05:22;;;;;;;0.20;0.20;;;-2.80;99.90;;;-3.36;100.00;101933.19;4920020;29;20237;-82
2022/01/25 04:07:50;;;;;;;0.40;0.40;;;-2.80;99.90;;;-3.26;100.00;101953.00;4914867;29;20842;-82
2022/01/25 04:10:20;;;;;;;0.40;0.40;;;-2.80;99.90;;;-3.23;100.00;101954.19;4901746;29;20213;-83
2022/01/25 04:12:48;;;;;;;0.30;0.30;;;-2.90;99.90;;;-3.27;100.00;101948.59;4927549;29;20230;-82
2022/01/25 04:15:16;;;;;;;0.40;0.40;;;-2.90;99.90;;;-3.35;100.00;101937.59;4911212;29;20199;-82
2022/01/25 04:17:49;;;;;;;0.30;0.30;;;-2.90;99.90;;;-3.39;100.00;101932.91;4912487;29;20240;-82
2022/01/25 04:20:24;;;;;;;0.30;0.30;;;-2.90;99.90;;;-3.33;100.00;101940.31;4931630;29;20221;-82
2022/01/25 04:25:39;;;;;;;0.30;0.30;;;-2.90;99.90;;;-3.31;100.00;101951.69;4919359;29;20214;-82
2022/01/25 04:28:08;;;;;;;1.30;1.30;;;-2.90;99.90;;;-3.17;100.00;101971.03;4908962;29;20210;-81
2022/01/25 04:30:36;;;;;;;0.20;0.20;;;-2.90;99.90;;;-3.42;100.00;101935.22;4912480;29;20218;-82
2022/01/25 04:33:17;;;;;;;0.30;0.30;;;-2.90;99.90;;;-3.31;100.00;101951.69;4929845;29;20214;-82
2022/01/25 04:35:58;;;;;;;0.30;0.30;;;-2.90;99.90;;;-3.29;100.00;101951.06;4934167;29;20214;-81
2022/01/25 04:49:35;;;;;;;0.30;0.30;;;-3.00;99.90;;;-3.44;100.00;101947.13;4934040;29;20682;-82
2022/01/25 04:52:14;;;;;;;0.20;0.20;;;-3.00;99.90;;;-3.36;100.00;101955.56;4929710;29;20205;-82
2022/01/25 04:57:32;;;;;;;0.30;0.30;;;-3.00;99.90;;;-3.34;100.00;101965.28;4923162;29;20235;-82
2022/01/25 05:00:06;;;;;;;0.30;0.30;;;-3.00;99.90;;;-3.38;100.00;101957.09;4907367;29;20210;-82
2022/01/25 05:05:40;;;;;;;0.30;0.30;;;-3.00;99.90;;;-3.44;100.00;101960.06;4919917;29;20245;-82
2022/01/25 05:08:29;;;;;;;0.20;0.20;;;-3.00;99.90;;;-3.60;100.00;101939.69;4920021;29;20209;-82
2022/01/25 05:11:07;;;;;;;0.30;0.30;;;-3.10;99.90;;;-3.52;100.00;101955.88;4930536;29;20210;-82
2022/01/25 05:13:55;;;;;;;0.40;0.40;;;-3.10;99.90;;;-3.62;100.00;101946.41;4934814;29;20209;-82
2022/01/25 05:16:29;;;;;;;0.30;0.30;;;-3.20;99.90;;;-3.68;100.00;101940.69;4923201;29;20595;-82
2022/01/25 05:19:09;;;;;;;0.30;0.30;;;-3.20;99.90;;;-3.70;100.00;101926.69;4913217;29;20689;-82
2022/01/25 05:24:25;;;;;;;0.93;0.93;;;-3.30;99.90;;;-3.69;100.00;101935.38;4922116;29;20238;-82
2022/01/25 05:26:54;;;;;;;0.30;0.30;;;-3.20;99.90;;;-3.63;100.00;101947.16;4913612;29;20226;-82
2022/01/25 05:29:21;;;;;;;0.30;0.30;;;-3.30;99.90;;;-3.46;100.00;101973.63;4915851;29;20214;-82
2022/01/25 05:31:50;;;;;;;0.35;0.35;;;-3.30;99.90;;;-3.48;100.00;101982.91;4938952;28;20217;-83
2022/01/25 05:34:19;;;;;;;0.40;0.40;;;-3.20;99.90;;;-3.48;100.00;101981.25;4927246;29;20225;-82
2022/01/25 05:36:50;;;;;;;0.40;0.40;;;-3.10;99.90;;;-3.66;100.00;101962.41;4920034;28;20230;-82
2022/01/25 05:39:27;;;;;;;0.30;0.30;;;-3.30;99.90;;;-3.66;100.00;101965.00;4915974;29;20211;-82
2022/01/25 05:42:17;;;;;;;0.30;0.30;;;-3.30;99.90;;;-3.66;100.00;101975.34;4919665;29;20213;-82
2022/01/25 05:47:29;;;;;;;0.30;0.30;;;-3.30;99.90;;;-3.64;100.00;101978.06;4945588;29;20221;-83
2022/01/25 05:49:58;;;;;;;0.30;0.30;;;-3.20;99.90;;;-3.73;100.00;101962.63;4908490;29;20220;-82
2022/01/25 05:52:27;;;;;;;0.40;0.40;;;-3.30;99.90;;;-3.76;100.00;101964.03;4915108;29;20194;-82
2022/01/25 05:54:57;;;;;;;0.30;0.30;;;-3.30;99.90;;;-3.73;100.00;101965.22;4921027;29;20217;-82
2022/01/25 05:57:25;;;;;;;0.30;0.30;;;-3.30;99.90;;;-3.81;100.00;101966.19;4942583;29;20242;-83
2022/01/25 05:59:54;;;;;;;0.30;0.30;;;-3.40;99.90;;;-3.79;100.00;101971.50;4927433;29;20215;-82
2022/01/25 06:02:25;;;;;;;0.40;0.40;;;-3.40;99.90;;;-3.78;100.00;101975.91;4947799;29;20218;-82
2022/01/25 06:04:53;;;;;;;0.40;0.40;;;-3.40;99.90;;;-3.75;100.00;101987.44;4916849;29;20230;-82
2022/01/25 06:07:21;;;;;;;0.40;0.40;;;-3.40;99.90;;;-3.71;100.00;102001.53;4936983;29;20238;-82
2022/01/25 06:09:49;;;;;;;0.38;0.38;;;-3.50;99.90;;;-3.75;100.00;101996.88;4918319;29;20207;-82
2022/01/25 06:12:17;;;;;;;0.38;0.38;;;-3.30;99.90;;;-3.78;100.00;101999.16;4915871;29;20211;-82
2022/01/25 06:14:46;;;;;;;0.40;0.40;;;-3.40;99.90;;;-3.81;100.00;101993.72;4940750;29;20210;-82
2022/01/25 06:17:14;;;;;;;0.40;0.40;;;-3.40;99.90;;;-3.83;100.00;102001.34;4921644;29;20249;-82
2022/01/25 06:19:43;;;;;;;0.35;0.35;;;-3.50;99.90;;;-3.87;100.00;101992.41;4922877;29;20565;-82
2022/01/25 06:22:12;;;;;;;0.40;0.40;;;-3.40;99.90;;;-3.91;100.00;101990.25;4922069;29;20707;-82
2022/01/25 06:24:40;;;;;;;0.40;0.40;;;-3.50;99.90;;;-3.93;100.00;101986.63;4928835;29;20238;-82
2022/01/25 06:27:08;;;;;;;0.40;0.40;;;-3.50;99.90;;;-3.92;100.00;101984.97;4908206;29;20231;-82
2022/01/25 06:29:35;;;;;;;0.45;0.45;;;-3.50;99.90;;;-3.90;100.00;101996.38;4895546;29;20214;-82
2022/01/25 06:32:04;;;;;;;0.30;0.30;;;-3.50;99.90;;;-3.95;100.00;101993.34;4915620;29;20210;-82
2022/01/25 06:34:34;;;;;;;0.40;0.40;;;-3.50;99.90;;;-3.84;100.00;102012.44;4941250;29;20214;-81
2022/01/25 06:37:02;;;;;;;0.30;0.30;;;-3.40;99.90;;;-3.80;100.00;102021.38;4935854;29;20242;-82
2022/01/25 06:39:31;;;;;;;0.40;0.40;;;-3.50;99.90;;;-3.84;100.00;102014.13;4912206;29;20214;-82
2022/01/25 06:41:59;;;;;;;0.38;0.38;;;-3.50;99.90;;;-3.87;100.00;102018.25;4910837;29;20211;-82
2022/01/25 06:44:27;;;;;;;0.30;0.30;;;-3.40;99.90;;;-3.81;100.00;102033.41;4922909;29;20719;-82
2022/01/25 06:46:55;;;;;;;0.40;0.40;;;-4.10;99.90;;;-3.87;100.00;102026.00;4930550;29;20231;-82
2022/01/25 06:49:23;;;;;;;0.40;0.40;;;;;;;-3.94;100.00;102027.84;4917525;28;20205;-82
2022/01/25 06:52:10;;;;;;;0.40;0.40;;;-3.50;99.90;;;-3.93;100.00;102032.25;4926575;29;20213;-82
2022/01/25 06:54:45;;;;;;;0.38;0.38;;;-3.60;99.90;;;-3.90;100.00;102045.47;4939309;29;20218;-82
2022/01/25 06:57:18;;;;;;;0.40;0.40;;;;;;;-3.92;100.00;102045.31;4923513;29;20237;-85
2022/01/25 06:59:51;;;;;;;0.50;0.50;;;-3.60;99.90;;;-3.67;100.00;102070.84;4922848;29;20655;-81
2022/01/25 07:02:20;;;;;;;0.40;0.40;;;-3.60;99.90;;;-3.21;100.00;102127.69;4942310;28;20212;-80
2022/01/25 07:04:48;;;;;;;0.40;0.40;;;-3.40;99.90;;;-3.14;100.00;102134.31;4911326;29;20222;-81
2022/01/25 07:07:17;;;;;;;0.40;0.40;;;;;;;-3.22;100.00;102120.69;4911396;29;20234;-83
2022/01/25 07:09:44;;;;;;;0.40;0.40;;;-3.10;99.90;;;-3.30;100.00;102109.63;4931018;28;20202;-83
2022/01/25 07:12:13;;;;;;;0.40;0.40;;;-3.20;99.90;;;-3.68;100.00;102059.59;4908294;29;20220;-80
2022/01/25 07:14:41;;;;;;;0.40;0.40;;;-3.30;99.90;;;-3.93;100.00;102042.59;4924767;29;20213;-82
2022/01/25 07:17:09;;;;;;;0.40;0.40;;;-3.30;99.90;;;-4.02;100.00;102033.97;4906681;29;20230;-83
2022/01/25 07:19:37;;;;;;;0.38;0.38;;;-3.40;99.90;;;-3.94;100.00;102054.59;4927441;29;20299;-81
2022/01/25 07:22:05;;;;;;;0.50;0.50;;;-3.50;99.90;;;-3.87;100.00;102072.53;4914254;29;20215;-81
2022/01/25 07:24:33;;;;;;;0.40;0.40;;;-3.50;99.90;;;-3.92;100.00;102072.81;4905281;29;20213;-81
2022/01/25 07:27:02;;;;;;;0.40;0.40;;;-3.50;99.90;;;-4.00;100.00;102066.94;4895199;29;20230;-82
2022/01/25 07:29:36;;;;;;;0.47;0.47;;;;;;;-4.06;100.00;102060.31;4915012;29;20211;-81
2022/01/25 07:32:04;;;;;;;0.60;0.60;;;-3.60;99.90;;;-4.06;100.00;102066.38;4918433;29;20210;-81
2022/01/25 07:34:40;;;;;;;0.40;0.40;;;-3.60;99.90;;;-3.96;100.00;102081.06;4907772;29;20216;-82
2022/01/25 07:37:19;;;;;;;0.40;0.40;;;-3.70;99.90;;;-3.93;100.00;102089.09;4924689;29;20230;-82
2022/01/25 07:39:51;;;;;;;0.40;0.40;;;-3.60;99.90;;;-3.87;100.00;102105.22;4917512;29;20210;-82
2022/01/25 07:42:19;;;;;;;0.30;0.30;;;-3.60;99.90;;;-3.78;100.00;102118.06;4906786;29;20217;-82
2022/01/25 07:44:55;;;;;;;0.30;0.30;;;-3.50;99.90;;;-3.82;100.00;102116.88;4908873;29;20209;-82
2022/01/25 07:47:29;;;;;;;0.30;0.30;;;-3.50;99.90;;;-3.80;100.00;102129.94;4914785;29;20236;-81
2022/01/25 07:49:58;;;;;;;0.30;0.30;;;-3.40;99.90;;;-3.75;100.00;102136.47;4923676;28;20202;-82
2022/01/25 07:52:29;;;;;;;0.40;0.40;;;-3.40;99.90;;;-3.71;100.00;102138.56;4938522;29;20206;-82
2022/01/25 07:54:57;;;;;;;0.40;0.40;;;-3.40;99.90;;;-3.68;100.00;102139.75;4931854;28;20210;-82
2022/01/25 07:57:25;;;;;;;0.30;0.30;;;-3.30;99.90;;;-3.67;100.00;102138.06;4906136;29;20235;-82
2022/01/25 07:59:53;;;;;;;0.20;0.20;;;-3.30;99.90;;;-3.61;100.00;102156.75;4927169;29;20210;-82
2022/01/25 08:02:21;;;;;;;0.40;0.40;;;-3.30;99.90;;;-3.51;100.00;102159.41;4916831;29;20211;-81
2022/01/25 08:05:02;;;;;;;0.50;0.50;;;-3.10;99.90;;;-3.38;100.00;102182.16;5023669;23;20232;-80
2022/01/25 08:07:45;;;;;;;0.50;0.50;;;-3.10;99.90;;;-3.24;100.00;102190.41;4864181;29;20208;-80
2022/01/25 08:10:30;;;;;;;0.40;0.40;;;-2.90;99.90;;;-3.05;100.00;102213.69;4802079;29;20218;-80
2022/01/25 08:13:23;;;;;;;0.47;0.47;;;-2.80;99.90;;;-2.83;100.00;102244.13;4802245;29;20223;-79
2022/01/25 08:16:09;;;;;;;0.40;0.40;;;-2.70;99.90;;;-2.73;100.00;102250.28;4823442;29;20233;-79
2022/01/25 08:18:46;;;;;;;0.30;0.30;;;-2.60;99.90;;;-2.64;100.00;102263.16;4805895;29;20226;-81
2022/01/25 08:21:26;;;;;;;0.30;0.30;;;-2.50;99.90;;;-2.62;100.00;102257.34;4849171;29;20232;-80
2022/01/25 08:24:14;;;;;;;0.20;0.20;;;-2.50;99.90;;;-2.44;100.00;102272.75;4888164;29;20209;-80
2022/01/25 08:27:06;;;;;;;0.20;0.20;;;-2.50;99.90;;;-2.31;100.00;102289.53;4879675;29;20236;-80
2022/01/25 08:29:47;;;;;;;0.30;0.30;;;-2.40;99.90;;;-2.24;100.00;102297.88;4881249;29;20213;-79
2022/01/25 08:32:44;;;;;;;0.32;0.32;;;-2.30;99.90;;;-2.06;100.00;102312.47;4831876;29;20208;-81
2022/01/25 08:35:33;;;;;;;0.20;0.20;;;-2.20;99.90;;;-1.96;100.00;102326.38;4875675;29;20236;-80
2022/01/25 08:38:43;;;;;;;0.40;0.40;;;-2.00;99.90;;;-1.83;100.00;102343.03;4885947;29;20224;-80
2022/01/25 08:41:45;;;;;;;0.20;0.20;;;-1.90;99.90;;;-1.70;100.00;102343.34;4878593;29;20209;-81
2022/01/25 08:44:47;;;;;;;0.17;0.17;;;-1.70;99.90;;;-1.64;100.00;102338.69;4871454;29;20232;-81
2022/01/25 08:47:50;;;;;;;0.20;0.20;;;-1.60;99.90;;;-1.50;100.00;102350.28;4866994;29;20621;-81
2022/01/25 08:50:32;;;;;;;0.20;0.20;;;-1.40;99.90;;;-1.42;100.00;102357.97;4852843;29;20212;-81
2022/01/25 08:53:18;;;;;;;0.20;0.20;;;-1.40;99.90;;;-1.39;100.00;102362.50;4873982;29;20213;-81
2022/01/25 08:56:30;;;;;;;0.20;0.20;;;-1.20;99.90;;;-1.24;100.00;102376.88;4870257;29;20235;-82
2022/01/25 08:59:19;;;;;;;0.20;0.20;;;-1.00;99.90;;;-1.20;100.00;102376.34;4785692;29;20259;-81
2022/01/25 09:01:48;;;;;;;0.20;0.20;;;-1.00;99.90;;;-1.10;100.00;102385.84;4775956;29;20226;-81
2022/01/25 09:04:18;;;;;;;0.30;0.30;;;;;;;-1.09;100.00;102380.78;4791800;29;20222;-82
2022/01/25 09:06:47;;;;;;;0.20;0.20;;;-0.90;99.90;;;-1.00;100.00;102389.38;4773797;29;20242;-82
2022/01/25 09:09:16;;;;;;;0.30;0.30;;;;;;;-0.92;100.00;102396.91;4838079;29;20205;-82
2022/01/25 09:11:44;;;;;;;0.35;0.35;;;;;;;-0.84;100.00;102406.28;4850742;29;20205;-82
2022/01/25 09:14:13;;;;;;;0.63;0.63;;;-0.70;99.90;;;-0.77;100.00;102409.53;4869359;29;20213;-81
2022/01/25 09:16:41;;;;;;;0.20;0.20;;;-0.60;99.90;;;-0.71;100.00;102406.53;4863683;29;20221;-82
2022/01/25 09:19:09;;;;;;;0.30;0.30;;;-0.50;99.90;;;-0.63;100.00;102422.78;4866904;29;20208;-82
2022/01/25 09:21:38;;;;;;;0.30;0.30;;;-0.50;99.90;;;-0.67;100.00;102414.72;4850444;29;20659;-82
2022/01/25 09:24:07;;;;;;;0.30;0.30;;;-0.40;99.90;;;-0.54;100.00;102415.78;4878122;29;20219;-80
2022/01/25 09:26:35;;;;;;;0.20;0.20;;;-0.40;99.90;;;-0.53;100.00;102413.31;4883016;29;20217;-82
2022/01/25 09:29:04;;;;;;;0.38;0.38;;;-0.30;99.90;;;-0.47;100.00;102423.31;4880096;29;20219;-81
2022/01/25 09:31:32;;;;;;;0.20;0.20;;;-0.20;99.90;;;-0.45;100.00;102421.75;4863798;29;20205;-82
2022/01/25 09:34:00;;;;;;;0.20;0.20;;;-0.20;99.90;;;-0.38;100.00;102418.88;4863998;29;20209;-82
2022/01/25 09:36:29;;;;;;;0.20;0.20;;;-0.10;99.90;;;-0.34;100.00;102413.16;4868260;29;20240;-82
2022/01/25 09:38:57;;;;;;;2.58;2.47;;;-0.10;99.90;;;-0.27;100.00;102422.38;4866584;29;20216;-81
2022/01/25 09:41:29;;;;;;;0.20;0.20;;;0.00;99.90;;;-0.26;100.00;102421.63;4854116;29;20208;-81
2022/01/25 09:43:57;;;;;;;0.30;0.30;;;0.00;99.90;;;-0.20;100.00;102420.44;4900208;29;20209;-82
2022/01/25 09:46:26;;;;;;;0.30;0.30;;;0.20;99.90;;;-0.19;100.00;102410.94;4909053;29;20220;-81
2022/01/25 09:48:55;;;;;;;0.30;0.30;;;0.20;99.90;;;-0.20;100.00;102406.53;4842863;29;20211;-82
2022/01/25 09:51:25;;;;;;;0.20;0.20;;;0.20;99.90;;;-0.11;100.00;102409.88;4865042;29;20224;-82
2022/01/25 09:53:53;;;;;;;0.30;0.30;;;0.30;99.90;;;-0.15;100.00;102403.53;4860196;29;20212;-80
2022/01/25 09:56:21;;;;;;;0.10;0.10;;;0.30;99.90;;;-0.12;100.00;102397.66;4868364;29;20232;-81
2022/01/25 09:58:50;;;;;;;0.20;0.20;;;0.30;99.90;;;-0.09;100.00;102401.44;4849329;29;20228;-79
2022/01/25 10:01:29;;;;;;;0.10;0.10;;;0.30;99.90;;;-0.03;100.00;102396.72;4866159;29;20216;-81
2022/01/25 10:04:00;;;;;;;0.20;0.20;;;0.40;99.90;;;0.03;100.00;102404.16;4867316;29;20212;-81
2022/01/25 10:06:32;;;;;;;0.20;0.20;;;0.40;99.90;;;0.05;100.00;102397.41;4893130;29;20235;-81
2022/01/25 10:09:02;;;;;;;0.20;0.20;;;0.40;99.90;;;0.07;100.00;102403.63;4853396;29;20209;-82
2022/01/25 10:11:30;;;;;;;0.20;0.20;;;0.40;99.90;;;0.07;100.00;102407.94;4855172;29;20210;-82
2022/01/25 10:13:59;;;;;;;0.20;0.20;;;0.50;99.90;;;0.09;100.00;102401.16;4866888;29;20232;-82
2022/01/25 10:16:35;;;;;;;0.32;0.32;;;0.50;99.90;;;0.14;100.00;102402.44;4867114;29;20236;-82
2022/01/25 10:19:10;;;;;;;0.95;0.95;;;0.60;99.90;;;0.29;100.00;102409.81;4868925;29;20216;-82
2022/01/25 10:21:49;;;;;;;0.32;0.32;;;0.70;99.90;;;0.26;100.00;102395.66;4871215;29;20213;-83
2022/01/25 10:24:26;;;;;;;0.20;0.20;;;0.70;99.90;;;0.16;100.00;102386.19;4843691;29;20705;-82
2022/01/25 10:27:04;;;;;;;0.30;0.30;;;0.70;99.90;;;0.12;100.00;102383.19;4889280;29;20229;-81
2022/01/25 10:29:36;;;;;;;0.20;0.20;;;0.70;99.90;;;0.06;100.00;102380.09;4863331;29;20212;-80
2022/01/25 10:32:08;;;;;;;0.20;0.20;;;0.60;99.90;;;-0.05;100.00;102369.69;4890058;29;20209;-81
2022/01/25 10:34:47;;;;;;;0.30;0.30;;;0.50;99.90;;;-0.07;100.00;102368.66;4860205;29;20212;-82
2022/01/25 10:37:24;;;;;;;0.30;0.30;;;0.50;99.90;;;0.03;100.00;102378.16;4887278;29;20228;-81
2022/01/25 10:39:53;;;;;;;0.30;0.30;;;0.50;99.90;;;-0.02;100.00;102372.53;4854231;29;20212;-82
2022/01/25 10:42:31;;;;;;;0.30;0.30;;;0.50;99.90;;;0.04;100.00;102384.28;4879788;29;20598;-82
2022/01/25 10:45:09;;;;;;;0.20;0.20;;;0.50;99.90;;;0.01;100.00;102382.31;4848906;29;20241;-82
2022/01/25 10:47:50;;;;;;;0.30;0.30;;;0.50;99.90;;;0.01;100.00;102384.94;4877279;29;20240;-82
2022/01/25 10:50:21;;;;;;;0.20;0.20;;;0.50;99.90;;;0.02;100.00;102386.75;4850374;29;20215;-82
2022/01/25 10:53:09;;;;;;;0.30;0.30;;;0.40;99.90;;;0.08;100.00;102394.13;4877415;29;20219;-81
2022/01/25 10:55:41;;;;;;;0.20;0.20;;;0.50;99.90;;;0.04;100.00;102377.38;4876059;29;20248;-81
2022/01/25 10:58:10;;;;;;;0.10;0.10;;;0.50;99.90;;;0.17;100.00;102392.28;4869132;29;20201;-82
2022/01/25 11:00:51;;;;;;;3.55;3.25;;;0.60;99.90;;;0.14;100.00;102387.75;4902121;29;20677;-82
2022/01/25 11:03:35;;;;;;;0.20;0.20;;;0.60;99.90;;;0.16;100.00;102377.47;4864850;29;20216;-82
2022/01/25 11:06:17;;;;;;;0.28;0.28;;;0.60;99.90;;;0.28;100.00;102381.97;4860655;29;20706;-81
2022/01/25 11:09:11;;;;;;;2.03;1.40;;;0.70;99.90;;;0.34;100.00;102384.16;4847456;29;20215;-81
2022/01/25 11:11:51;;;;;;;0.40;0.40;;;0.80;99.90;;;0.28;100.00;102368.97;4877537;29;20201;-81
2022/01/25 11:17:08;;;;;;;0.20;0.20;;;0.80;99.90;;;0.21;100.00;102361.44;4865508;29;20204;-81
2022/01/25 11:19:38;;;;;;;0.20;0.20;;;0.80;99.90;;;0.42;100.00;102375.28;4867666;29;20215;-81
2022/01/25 11:22:10;;;;;;;0.20;0.20;;;1.40;99.90;;;0.50;100.00;102379.41;4871038;29;20209;-82
2022/01/25 11:24:40;;;;;;;0.20;0.20;;;0.90;99.90;;;0.42;100.00;102363.97;4876211;29;20239;-80
2022/01/25 11:27:08;;;;;;;0.30;0.30;;;1.00;99.90;;;0.38;100.00;102360.19;4873170;29;20228;-82
2022/01/25 11:29:41;;;;;;;0.30;0.30;;;0.90;99.90;;;0.41;100.00;102368.25;4873725;29;20212;-81
2022/01/25 11:32:14;;;;;;;0.20;0.20;;;0.90;99.90;;;0.47;100.00;102362.63;4873752;29;20209;-81
2022/01/25 11:34:45;;;;;;;0.60;0.60;;;0.90;99.90;;;0.44;100.00;102358.09;4880841;29;20236;-81
2022/01/25 11:37:13;;;;;;;0.20;0.20;;;0.90;99.90;;;0.60;100.00;102368.94;4878789;29;20212;-81
2022/01/25 11:39:48;;;;;;;0.30;0.30;;;0.90;99.90;;;0.68;100.00;102363.44;4879096;29;20227;-81
2022/01/25 11:42:34;;;;;;;0.20;0.20;;;1.10;99.90;;;0.72;100.00;102355.97;4863496;29;20259;-81
2022/01/25 11:45:06;;;;;;;0.20;0.20;;;1.20;99.90;;;0.69;100.00;102350.53;4890198;29;20240;-81
2022/01/25 11:47:37;;;;;;;0.30;0.30;;;1.30;99.90;;;0.74;100.00;102351.81;4846115;29;20233;-81
2022/01/25 11:50:10;;;;;;;0.28;0.28;;;1.30;99.90;;;0.56;100.00;102335.63;4848777;29;20216;-81
2022/01/25 11:52:55;;;;;;;0.20;0.20;;;1.20;99.90;;;0.81;100.00;102347.97;4849818;29;20692;-81
2022/01/25 11:55:26;;;;;;;0.40;0.40;;;1.20;99.90;;;0.87;100.00;102346.75;4862520;29;20853;-81
2022/01/25 11:58:09;;;;;;;0.30;0.30;;;1.30;99.90;;;0.88;100.00;102347.69;4845317;29;20212;-81
2022/01/25 12:01:03;;;;;;;0.30;0.30;;;1.40;99.90;;;0.82;100.00;102329.88;4868867;29;20204;-81
2022/01/25 12:03:41;;;;;;;0.20;0.20;;;1.40;99.90;;;0.84;100.00;102332.59;4880839;29;20213;-81
2022/01/25 12:06:20;;;;;;;0.20;0.20;;;1.40;99.90;;;0.82;100.00;102329.88;4847141;29;20241;-81
2022/01/25 12:11:47;;;;;;;0.30;0.30;;;1.50;99.90;;;0.95;100.00;102331.72;4869503;29;20208;-80